Time;durP1;ratioP1;P1;durP2;ratioP2;P2;SDS_P1;SDS_P2;PMS_P1;PMS_P2;Temp;Humidity;BMP_temperature;BMP_pressure;BME280_temperature;BME280_humidity;BME280_pressure;Samples;Min_cycle;Max_cycle;Signal;HPM_P1;HPM_P2
2023/07/14 00:00:20;;;;;;;5.97;2.05;;;;;;;16.85;80.87;101763.94;5077613;28;20028;-80
2023/07/14 00:02:47;;;;;;;;;;;;;;;16.83;80.84;101751.72;5060308;28;20028;-80
2023/07/14 00:05:21;;;;;;;6.25;1.90;;;;;;;16.82;80.84;101749.97;5081280;28;19908;-80
2023/07/14 00:07:49;;;;;;;5.53;2.28;;;;;;;16.83;81.11;101751.72;5089727;28;20055;-80
2023/07/14 00:10:21;;;;;;;3.15;2.05;;;;;;;16.81;80.82;101748.28;5063215;28;20078;-80
2023/07/14 00:12:48;;;;;;;3.10;1.92;;;;;;;16.80;80.54;101742.13;5078133;28;20044;-80
2023/07/14 00:15:15;;;;;;;2.25;1.60;;;;;;;16.81;80.80;101746.47;5078506;28;20196;-80
2023/07/14 00:17:40;;;;;;;1.98;1.80;;;;;;;16.81;80.45;101743.00;5059518;28;20070;-80
2023/07/14 00:20:20;;;;;;;5.13;1.90;;;;;;;16.81;80.82;101749.13;5065080;28;20055;-80
2023/07/14 00:22:45;;;;;;;4.65;2.08;;;;;;;16.81;80.72;101735.91;5078337;28;20413;-80
2023/07/14 00:25:13;;;;;;;5.20;2.20;;;;;;;16.81;80.46;101738.53;5082591;28;20387;-81
2023/07/14 00:27:39;;;;;;;3.25;1.90;;;;;;;16.82;80.58;101739.41;5077150;28;20339;-80
2023/07/14 00:30:16;;;;;;;5.05;1.95;;;;;;;16.79;80.58;101731.59;5077556;28;20052;-80
2023/07/14 00:32:42;;;;;;;3.17;2.00;;;;;;;16.78;80.74;101730.75;5077944;28;20066;-80
2023/07/14 00:35:16;;;;;;;3.50;2.13;;;;;;;16.76;80.83;101735.28;5080592;28;20032;-80
2023/07/14 00:37:42;;;;;;;2.30;1.70;;;;;;;16.78;81.01;101732.56;5078026;28;20192;-80
2023/07/14 00:40:12;;;;;;;3.05;1.77;;;;;;;16.78;80.80;101728.13;5077619;28;20024;-80
2023/07/14 00:42:39;;;;;;;3.30;1.90;;;;;;;16.78;80.62;101735.22;5077182;28;20032;-80
2023/07/14 00:45:19;;;;;;;4.20;2.53;;;;;;;16.76;80.90;101722.06;5077132;28;20369;-80
2023/07/14 00:47:52;;;;;;;3.05;2.08;;;;;;;16.75;81.00;101717.69;5077015;28;20327;-80
2023/07/14 00:50:43;;;;;;;5.40;2.05;;;;;;;16.76;80.78;101718.56;5077111;28;20386;-80
2023/07/14 00:53:23;;;;;;;3.97;2.03;;;;;;;16.73;80.88;101722.22;5077164;28;20086;-80
2023/07/14 00:56:15;;;;;;;2.08;1.70;;;;;;;16.71;81.12;101716.16;5058885;28;20043;-80
2023/07/14 00:58:49;;;;;;;4.35;2.08;;;;;;;16.69;80.90;101710.94;5023834;28;20075;-80
2023/07/14 01:01:23;;;;;;;3.75;1.90;;;;;;;16.68;81.10;101713.66;5077100;28;20286;-80
2023/07/14 01:03:51;;;;;;;3.10;1.55;;;;;;;16.67;80.88;101706.66;5081607;28;20039;-80
2023/07/14 01:06:23;;;;;;;2.40;1.80;;;;;;;16.68;81.04;101711.00;5082080;28;20028;-80
2023/07/14 01:08:52;;;;;;;2.58;1.45;;;;;;;16.64;80.63;101710.31;5097176;28;20059;-80
2023/07/14 01:11:21;;;;;;;3.28;2.35;;;;;;;16.64;80.82;101712.97;5096328;28;20027;-80
2023/07/14 01:13:46;;;;;;;1.85;1.70;;;;;;;16.64;80.81;101709.47;5096898;28;20072;-80
2023/07/14 01:16:18;;;;;;;5.07;2.00;;;;;;;16.65;80.51;101703.25;5096805;28;20024;-80
2023/07/14 01:18:45;;;;;;;1.92;1.60;;;;;;;16.63;80.48;101707.78;5096469;28;20128;-80
2023/07/14 01:21:11;;;;;;;1.95;1.55;;;;;;;16.62;80.70;101703.41;5096866;28;20044;-81
2023/07/14 01:23:58;;;;;;;3.30;2.15;;;;;;;16.61;80.61;101707.00;5095654;28;20036;-81
2023/07/14 01:26:31;;;;;;;3.63;1.88;;;;;;;16.58;80.61;101705.34;5095309;28;20093;-81
2023/07/14 01:28:56;;;;;;;3.95;2.10;;;;;;;16.55;80.77;101702.88;5096879;28;20048;-80
2023/07/14 01:31:24;;;;;;;2.58;1.80;;;;;;;16.55;80.82;101707.31;5077120;28;20019;-80
2023/07/14 01:33:53;;;;;;;1.75;1.50;;;;;;;16.53;80.90;101694.16;5096514;28;20031;-80
2023/07/14 01:36:23;;;;;;;2.10;1.67;;;;;;;16.53;80.54;101696.81;5095098;28;20015;-80
2023/07/14 01:38:48;;;;;;;3.38;1.70;;;;;;;16.54;80.63;101690.59;5095967;28;20290;-80
2023/07/14 01:41:14;;;;;;;1.77;1.67;;;;;;;16.52;80.60;101692.47;5095722;28;20023;-80
2023/07/14 01:43:42;;;;;;;2.97;1.90;;;;;;;16.50;80.56;101695.19;5095737;28;20344;-80
2023/07/14 01:46:14;;;;;;;5.33;2.30;;;;;;;16.49;80.35;101680.25;5077109;28;20040;-80
2023/07/14 01:48:58;;;;;;;4.75;2.00;;;;;;;16.49;80.34;101692.63;5087876;28;20548;-80
2023/07/14 01:51:26;;;;;;;3.47;1.80;;;;;;;16.49;80.25;101687.34;5094908;28;20073;-80
2023/07/14 01:54:19;;;;;;;2.35;2.15;;;;;;;16.47;80.20;101690.06;5077731;28;20038;-80
2023/07/14 01:56:47;;;;;;;2.90;1.95;;;;;;;16.45;79.98;101688.44;5095737;28;20027;-80
2023/07/14 01:59:20;;;;;;;2.28;2.05;;;;;;;16.42;80.25;101685.94;5096068;28;20272;-80
2023/07/14 02:01:46;;;;;;;4.38;1.98;;;;;;;16.39;79.76;101689.63;5095412;28;20350;-80
2023/07/14 02:04:25;;;;;;;4.03;2.13;;;;;;;16.37;80.02;101698.53;5096227;28;20535;-80
2023/07/14 02:06:50;;;;;;;2.33;1.80;;;;;;;16.36;80.15;101694.19;5095588;28;20235;-80
2023/07/14 02:09:17;;;;;;;3.53;1.92;;;;;;;16.33;80.12;101684.63;5077590;28;20023;-80
2023/07/14 02:11:47;;;;;;;4.25;1.83;;;;;;;16.32;79.94;101685.56;5095626;28;20035;-80
2023/07/14 02:14:17;;;;;;;2.20;1.80;;;;;;;16.30;80.02;101683.00;5095685;28;20035;-80
2023/07/14 02:16:45;;;;;;;3.22;1.88;;;;;;;16.29;80.19;101685.72;5095599;28;20280;-80
2023/07/14 02:19:21;;;;;;;4.20;1.95;;;;;;;16.27;79.83;101677.03;5095687;28;20023;-80
2023/07/14 02:21:48;;;;;;;2.97;1.70;;;;;;;16.27;79.99;101679.66;5095352;28;20028;-80
2023/07/14 02:24:20;;;;;;;4.63;2.03;;;;;;;16.28;79.96;101668.13;5095598;28;20035;-80
2023/07/14 02:26:51;;;;;;;4.30;2.10;;;;;;;16.26;79.60;101668.25;5077645;28;20032;-80
2023/07/14 02:29:16;;;;;;;3.50;2.15;;;;;;;16.21;79.66;101667.63;5095003;28;20015;-80
2023/07/14 02:32:21;;;;;;;5.70;2.28;;;;;;;16.20;79.59;101663.25;5094980;28;20036;-80
2023/07/14 02:34:53;;;;;;;4.88;1.92;;;;;;;16.20;79.80;101660.59;5094048;28;20024;-80
2023/07/14 02:38:03;;;;;;;2.90;1.75;;;;;;;16.19;79.88;101664.22;5092330;28;20334;-80
2023/07/14 02:40:36;;;;;;;3.92;1.92;;;;;;;16.16;80.42;101672.28;5089960;28;20109;-81
2023/07/14 02:43:06;;;;;;;4.72;1.95;;;;;;;16.12;80.56;101665.44;5094978;28;20047;-80
2023/07/14 02:45:35;;;;;;;2.45;1.85;;;;;;;16.10;80.62;101662.03;5094797;28;20058;-80
2023/07/14 02:48:03;;;;;;;;;;;;;;;16.06;80.95;101663.09;5095615;28;20042;-80
2023/07/14 02:50:29;;;;;;;1.92;1.75;;;;;;;16.04;80.92;101667.59;5094722;28;19919;-80
2023/07/14 02:52:54;;;;;;;3.15;2.00;;;;;;;16.03;81.23;101668.56;5094960;28;20563;-80
2023/07/14 02:55:20;;;;;;;3.45;2.08;;;;;;;16.01;81.25;101671.28;5076780;28;20371;-80
2023/07/14 02:57:45;;;;;;;2.88;2.28;;;;;;;15.99;81.38;101673.16;5077087;28;20055;-80
2023/07/14 03:00:11;;;;;;;4.47;2.30;;;;;;;15.97;81.69;101669.72;5095657;28;20035;-80
2023/07/14 03:02:38;;;;;;;2.63;1.80;;;;;;;15.97;81.83;101666.22;5094591;28;20044;-80
2023/07/14 03:05:04;;;;;;;3.83;2.08;;;;;;;15.96;82.20;101670.66;5095556;28;20073;-80
2023/07/14 03:07:32;;;;;;;5.47;2.38;;;;;;;15.95;82.11;101662.78;5088812;28;20293;-80
2023/07/14 03:09:58;;;;;;;4.18;1.80;;;;;;;15.95;82.01;101661.00;5075326;28;20038;-80
2023/07/14 03:12:23;;;;;;;2.90;2.08;;;;;;;15.95;82.02;101660.16;5074767;28;20311;-80
2023/07/14 03:14:48;;;;;;;4.07;1.98;;;;;;;15.94;82.30;101656.66;5079387;28;20025;-80
2023/07/14 03:17:14;;;;;;;2.17;1.98;;;;;;;15.94;82.23;101654.03;5074681;28;20056;-80
2023/07/14 03:19:39;;;;;;;4.60;2.00;;;;;;;15.91;82.15;101652.38;5074539;28;20334;-80
2023/07/14 03:22:05;;;;;;;2.30;2.10;;;;;;;15.89;82.47;101651.59;5075347;28;20044;-80
2023/07/14 03:24:30;;;;;;;3.30;2.15;;;;;;;15.88;82.74;101649.03;5085588;28;20036;-80
2023/07/14 03:26:55;;;;;;;6.45;2.50;;;;;;;15.87;82.57;101650.81;5092143;28;20342;-80
2023/07/14 03:29:21;;;;;;;4.40;2.22;;;;;;;15.86;82.49;101650.91;5074291;28;20121;-80
2023/07/14 03:31:46;;;;;;;6.28;2.40;;;;;;;15.84;83.00;101643.03;5057379;28;20031;-80
2023/07/14 03:34:11;;;;;;;3.97;2.30;;;;;;;15.82;83.37;101644.91;5075505;28;20036;-80
2023/07/14 03:36:37;;;;;;;7.13;2.40;;;;;;;15.80;83.62;101651.22;5074459;28;20024;-80
2023/07/14 03:39:24;;;;;;;7.07;2.65;;;;;;;15.76;83.76;101645.22;5074468;28;20043;-80
2023/07/14 03:41:50;;;;;;;5.78;2.45;;;;;;;15.74;83.93;101647.09;5075093;28;20036;-80
2023/07/14 03:44:15;;;;;;;5.35;2.38;;;;;;;15.75;84.06;101648.78;5075244;28;20042;-80
2023/07/14 03:46:41;;;;;;;3.40;2.30;;;;;;;15.73;84.23;101646.22;5075108;28;20549;-80
2023/07/14 03:49:06;;;;;;;3.67;2.55;;;;;;;15.72;84.22;101641.84;5077610;28;20169;-80
2023/07/14 03:51:32;;;;;;;7.28;2.75;;;;;;;15.72;84.27;101638.38;5088704;28;20030;-80
2023/07/14 03:53:58;;;;;;;5.65;2.38;;;;;;;15.71;84.54;101634.84;5086231;28;20071;-80
2023/07/14 03:56:23;;;;;;;6.05;2.50;;;;;;;15.71;84.45;101634.00;5077338;28;20106;-80
2023/07/14 03:58:48;;;;;;;7.07;3.03;;;;;;;15.70;84.70;101630.50;5078248;28;20056;-80
2023/07/14 04:01:14;;;;;;;5.85;2.72;;;;;;;15.69;85.24;101639.34;5078082;28;20024;-80
2023/07/14 04:03:39;;;;;;;7.00;2.88;;;;;;;15.69;85.33;101630.59;5080426;28;20083;-80
2023/07/14 04:06:06;;;;;;;7.35;2.78;;;;;;;15.68;85.53;101626.22;5097489;28;20042;-80
2023/07/14 04:08:39;;;;;;;7.35;3.22;;;;;;;15.69;85.50;101626.16;5091528;28;20042;-80
2023/07/14 04:11:05;;;;;;;6.40;3.10;;;;;;;15.71;85.37;101628.72;5078192;28;20051;-80
2023/07/14 04:13:32;;;;;;;2.75;2.45;;;;;;;15.71;85.47;101631.34;5077525;28;20062;-80
2023/07/14 04:15:57;;;;;;;5.88;3.03;;;;;;;15.70;85.63;101632.31;5078615;28;20040;-80
2023/07/14 04:18:23;;;;;;;5.43;3.15;;;;;;;15.70;85.75;101619.09;5078465;28;20551;-80
2023/07/14 04:20:49;;;;;;;4.80;3.30;;;;;;;15.70;86.12;101624.38;5096148;28;20346;-80
2023/07/14 04:23:17;;;;;;;6.28;3.40;;;;;;;15.70;86.25;101622.59;5095646;28;20028;-80
2023/07/14 04:25:43;;;;;;;6.35;3.92;;;;;;;15.69;86.47;101623.50;5078199;28;20024;-80
2023/07/14 04:28:08;;;;;;;9.65;3.90;;;;;;;15.69;86.67;101622.66;5078012;28;20031;-80
2023/07/14 04:30:33;;;;;;;7.60;3.60;;;;;;;15.69;86.50;101634.06;5077638;28;20050;-80
2023/07/14 04:32:59;;;;;;;11.02;4.18;;;;;;;15.69;86.52;101628.78;5059483;28;20348;-80
2023/07/14 04:35:25;;;;;;;8.20;4.13;;;;;;;15.71;86.36;101620.78;5094379;28;20036;-80
2023/07/14 04:37:50;;;;;;;9.02;4.22;;;;;;;15.72;86.66;101627.78;5091305;28;20274;-80
2023/07/14 04:40:16;;;;;;;4.88;4.05;;;;;;;15.72;86.45;101626.00;5077989;28;20248;-80
2023/07/14 04:42:41;;;;;;;8.07;4.45;;;;;;;15.73;86.87;101624.22;5078703;28;20051;-80
2023/07/14 04:45:07;;;;;;;8.43;3.78;;;;;;;15.74;86.87;101621.53;5083214;28;20313;-80
2023/07/14 04:47:32;;;;;;;8.88;4.40;;;;;;;15.76;86.95;101618.81;5085139;28;20044;-80
2023/07/14 04:49:58;;;;;;;6.72;4.18;;;;;;;15.79;86.82;101620.44;5077711;28;20033;-80
2023/07/14 04:52:23;;;;;;;5.97;4.15;;;;;;;15.80;86.84;101620.38;5079742;28;20043;-80
2023/07/14 04:54:48;;;;;;;9.63;4.95;;;;;;;15.81;86.97;101608.88;5077084;28;20036;-80
2023/07/14 04:57:14;;;;;;;7.50;4.55;;;;;;;15.82;87.56;101615.00;5076727;28;20323;-80
2023/07/14 04:59:40;;;;;;;9.50;4.82;;;;;;;15.83;87.58;101616.72;5074779;28;20049;-80
2023/07/14 05:02:07;;;;;;;8.77;4.40;;;;;;;15.82;87.37;101613.22;5077014;28;20150;-80
2023/07/14 05:04:33;;;;;;;7.60;4.93;;;;;;;15.84;87.58;101613.97;5086728;28;20023;-80
2023/07/14 05:06:58;;;;;;;8.05;4.82;;;;;;;15.84;87.66;101611.34;5084346;28;20052;-80
2023/07/14 05:09:24;;;;;;;5.72;4.10;;;;;;;15.88;87.55;101612.03;5061027;28;20146;-80
2023/07/14 05:11:50;;;;;;;8.25;4.43;;;;;;;15.91;87.51;101617.19;5077410;28;20472;-80
2023/07/14 05:14:15;;;;;;;6.53;4.32;;;;;;;15.93;87.50;101608.28;5059324;28;20021;-80
2023/07/14 05:16:40;;;;;;;6.50;4.25;;;;;;;15.97;87.44;101616.00;5076406;28;20347;-80
2023/07/14 05:19:06;;;;;;;7.50;5.05;;;;;;;15.98;87.56;101609.81;5085835;28;20095;-80
2023/07/14 05:21:31;;;;;;;6.45;4.63;;;;;;;16.00;87.72;101607.94;5076287;28;20043;-80
2023/07/14 05:23:57;;;;;;;6.43;4.32;;;;;;;16.01;87.50;101599.94;5079099;28;20043;-80
2023/07/14 05:26:22;;;;;;;11.90;4.75;;;;;;;16.02;87.81;101601.63;5077200;28;20028;-80
2023/07/14 05:28:48;;;;;;;8.27;4.85;;;;;;;16.03;88.06;101600.72;5076585;28;20247;-80
2023/07/14 05:31:13;;;;;;;11.68;5.43;;;;;;;16.06;87.97;101602.31;5058603;28;20043;-80
2023/07/14 05:33:39;;;;;;;6.68;4.75;;;;;;;16.06;87.87;101600.56;5060956;28;20055;-80
2023/07/14 05:36:05;;;;;;;6.82;4.57;;;;;;;16.10;87.69;101603.91;5077059;28;20035;-80
2023/07/14 05:38:31;;;;;;;11.52;5.72;;;;;;;16.10;87.63;101599.47;5057468;28;20407;-80
2023/07/14 05:40:57;;;;;;;8.60;5.05;;;;;;;16.12;87.67;101602.03;5076536;28;20091;-80
2023/07/14 05:43:24;;;;;;;9.98;4.90;;;;;;;16.14;87.66;101602.81;5077129;28;20085;-80
2023/07/14 05:45:50;;;;;;;6.65;5.22;;;;;;;16.17;87.72;101612.34;5059048;28;20032;-80
2023/07/14 05:48:17;;;;;;;10.82;6.00;;;;;;;16.21;88.08;101611.25;5075963;28;20107;-80
2023/07/14 05:50:46;;;;;;;10.85;5.28;;;;;;;16.21;88.05;101601.56;5073170;28;20040;-80
2023/07/14 05:53:12;;;;;;;11.15;6.07;;;;;;;16.25;87.92;101602.25;5077023;28;20040;-80
2023/07/14 05:55:38;;;;;;;13.02;6.00;;;;;;;16.28;87.69;101610.00;5073617;28;20063;-80
2023/07/14 05:58:03;;;;;;;12.98;5.60;;;;;;;16.30;87.72;101598.41;5076459;28;20066;-80
2023/07/14 06:00:29;;;;;;;8.73;5.35;;;;;;;16.33;87.62;101596.56;5075243;28;20579;-80
2023/07/14 06:02:54;;;;;;;13.23;5.40;;;;;;;16.36;87.64;101591.94;5075210;28;20032;-80
2023/07/14 06:05:20;;;;;;;8.38;5.15;;;;;;;16.40;87.86;101592.66;5056345;28;20325;-80
2023/07/14 06:07:46;;;;;;;12.18;5.63;;;;;;;16.44;88.12;101602.13;5077224;28;20052;-80
2023/07/14 06:10:12;;;;;;;14.20;6.07;;;;;;;16.46;88.04;101597.59;5058650;28;20204;-80
2023/07/14 06:12:37;;;;;;;8.80;5.72;;;;;;;16.49;87.96;101603.56;5075845;28;20334;-80
2023/07/14 06:15:04;;;;;;;11.98;5.70;;;;;;;16.54;88.19;101599.84;5057589;28;20056;-80
2023/07/14 06:17:29;;;;;;;12.52;5.90;;;;;;;16.56;88.12;101592.69;5062252;28;20339;-80
2023/07/14 06:19:55;;;;;;;12.10;6.15;;;;;;;16.61;88.35;101593.31;5070782;28;20384;-81
2023/07/14 06:22:21;;;;;;;17.80;6.72;;;;;;;16.64;88.48;101591.31;5071076;28;20323;-80
2023/07/14 06:24:48;;;;;;;11.98;6.07;;;;;;;16.67;88.29;101588.50;5079859;28;20323;-81
2023/07/14 06:27:14;;;;;;;11.18;5.95;;;;;;;16.69;88.14;101594.56;5076671;28;20105;-80
2023/07/14 06:29:40;;;;;;;13.10;6.70;;;;;;;16.70;87.88;101583.06;5074426;28;20040;-80
2023/07/14 06:32:05;;;;;;;14.50;6.72;;;;;;;16.73;88.05;101589.13;5073083;28;20070;-81
2023/07/14 06:34:31;;;;;;;11.85;6.65;;;;;;;16.73;88.22;101589.97;5075692;28;20092;-80
2023/07/14 06:36:57;;;;;;;12.30;7.00;;;;;;;16.77;88.32;101585.34;5074565;28;20034;-81
2023/07/14 06:39:22;;;;;;;10.18;6.10;;;;;;;16.79;88.45;101587.00;5074251;28;20036;-81
2023/07/14 06:41:48;;;;;;;15.68;6.25;;;;;;;16.82;88.80;101585.97;5057101;28;20082;-81
2023/07/14 06:44:14;;;;;;;10.93;6.10;;;;;;;16.87;88.91;101591.91;5074680;28;20032;-80
2023/07/14 06:46:39;;;;;;;14.18;6.32;;;;;;;16.89;88.76;101588.22;5074365;28;20044;-81
2023/07/14 06:49:05;;;;;;;13.60;6.65;;;;;;;16.91;88.23;101582.84;5074288;28;20349;-81
2023/07/14 06:51:30;;;;;;;6.85;5.60;;;;;;;16.95;88.23;101583.53;5059594;28;20374;-81
2023/07/14 06:53:56;;;;;;;7.13;6.22;;;;;;;16.96;88.02;101583.44;5055193;28;20051;-81
2023/07/14 06:56:22;;;;;;;12.52;6.75;;;;;;;17.00;87.93;101573.53;5074878;28;20100;-81
2023/07/14 06:58:48;;;;;;;13.65;6.57;;;;;;;17.02;88.17;101575.16;5085383;28;20036;-81
2023/07/14 07:01:15;;;;;;;13.02;5.85;;;;;;;17.07;87.83;101585.50;5075026;28;20047;-81
2023/07/14 07:03:41;;;;;;;12.23;6.50;;;;;;;17.11;87.70;101580.88;5061594;28;20072;-81
2023/07/14 07:06:06;;;;;;;12.20;6.45;;;;;;;17.13;87.87;101577.19;5076467;28;20331;-80
2023/07/14 07:08:31;;;;;;;8.88;5.22;;;;;;;17.16;87.67;101573.53;5075894;28;20044;-80
2023/07/14 07:10:57;;;;;;;10.23;6.22;;;;;;;17.20;87.45;101569.78;5082375;28;20450;-80
2023/07/14 07:13:22;;;;;;;17.45;7.35;;;;;;;17.22;87.23;101568.72;5084308;28;20036;-80
2023/07/14 07:15:47;;;;;;;12.30;6.25;;;;;;;17.24;87.25;101566.00;5076978;28;20071;-80
2023/07/14 07:18:14;;;;;;;10.57;5.88;;;;;;;17.26;87.13;101566.75;5078440;28;20043;-81
2023/07/14 07:20:42;;;;;;;16.92;6.95;;;;;;;17.24;86.71;101564.19;5080031;28;20036;-81
2023/07/14 07:23:09;;;;;;;6.53;4.85;;;;;;;17.24;86.80;101566.00;5082871;28;20043;-81
2023/07/14 07:25:35;;;;;;;11.82;6.70;;;;;;;17.23;86.57;101557.22;5080791;28;20241;-80
2023/07/14 07:28:01;;;;;;;11.95;6.15;;;;;;;17.22;87.07;101555.50;5081402;28;20031;-81
2023/07/14 07:30:26;;;;;;;6.88;5.32;;;;;;;17.25;87.01;101549.19;5065987;28;20028;-81
2023/07/14 07:32:52;;;;;;;12.30;6.65;;;;;;;17.29;87.07;101545.41;5084341;28;20265;-81
2023/07/14 07:35:17;;;;;;;8.55;5.50;;;;;;;17.34;86.93;101556.59;5079623;28;20099;-81
2023/07/14 07:37:43;;;;;;;10.80;5.97;;;;;;;17.37;86.53;101560.84;5082712;28;20042;-81
2023/07/14 07:40:11;;;;;;;9.32;5.22;;;;;;;17.41;86.34;101555.31;5078463;28;20063;-81
2023/07/14 07:42:38;;;;;;;9.80;6.03;;;;;;;17.45;86.04;101555.97;5065451;28;20555;-82
2023/07/14 07:45:04;;;;;;;7.80;4.93;;;;;;;17.50;86.14;101558.34;5064439;28;20024;-81
2023/07/14 07:47:29;;;;;;;11.32;5.47;;;;;;;17.53;86.10;101542.28;5081472;28;20099;-81
2023/07/14 07:49:54;;;;;;;7.85;5.03;;;;;;;17.57;85.62;101546.44;5078001;28;20104;-80
2023/07/14 07:52:20;;;;;;;7.72;5.13;;;;;;;17.60;85.42;101546.28;5061295;28;20051;-81
2023/07/14 07:54:46;;;;;;;11.05;5.30;;;;;;;17.64;85.57;101539.84;5085622;28;20057;-80
2023/07/14 07:57:11;;;;;;;10.48;5.63;;;;;;;17.71;85.66;101535.03;5077010;28;20105;-80
2023/07/14 07:59:37;;;;;;;10.70;4.50;;;;;;;17.77;85.69;101532.03;5082410;28;20032;-80
2023/07/14 08:02:03;;;;;;;8.13;4.78;;;;;;;17.83;85.73;101529.03;5082826;28;20373;-80
2023/07/14 08:04:28;;;;;;;8.43;4.53;;;;;;;17.88;85.35;101536.72;5075570;28;20360;-81
2023/07/14 08:06:54;;;;;;;14.80;5.25;;;;;;;17.89;84.23;101533.13;5081394;28;20102;-80
2023/07/14 08:09:20;;;;;;;10.18;4.78;;;;;;;17.90;83.93;101537.47;5081011;28;20029;-80
2023/07/14 08:11:46;;;;;;;7.25;3.78;;;;;;;17.95;84.02;101535.38;5085384;28;20056;-79
2023/07/14 08:14:15;;;;;;;11.07;4.65;;;;;;;17.96;83.41;101527.34;5065748;28;20379;-79
2023/07/14 08:16:41;;;;;;;8.02;3.92;;;;;;;18.00;83.58;101528.03;5081417;28;20245;-79
2023/07/14 08:19:06;;;;;;;4.78;4.22;;;;;;;18.02;83.43;101526.13;5087276;28;20051;-79
2023/07/14 08:21:32;;;;;;;9.35;3.90;;;;;;;18.03;83.20;101535.78;5088838;28;20063;-77
2023/07/14 08:23:58;;;;;;;9.50;4.68;;;;;;;18.08;83.43;101539.03;5065279;28;20028;-79
2023/07/14 08:26:24;;;;;;;10.25;4.40;;;;;;;18.09;83.14;101546.00;5086799;28;20300;-79
2023/07/14 08:28:49;;;;;;;6.65;4.20;;;;;;;18.10;82.73;101537.13;5087331;28;20372;-79
2023/07/14 08:31:15;;;;;;;6.20;3.63;;;;;;;18.11;82.12;101541.47;5084305;28;20046;-79
2023/07/14 08:33:43;;;;;;;6.60;3.58;;;;;;;18.13;81.84;101530.75;5089719;28;20039;-79
2023/07/14 08:36:11;;;;;;;6.72;3.70;;;;;;;18.15;81.94;101532.38;5086193;28;20119;-79
2023/07/14 08:38:39;;;;;;;5.78;2.95;;;;;;;18.16;81.84;101533.25;5081800;28;20417;-79
2023/07/14 08:41:23;;;;;;;4.10;2.80;;;;;;;18.18;81.66;101531.34;5083400;28;20036;-79
2023/07/14 08:44:17;;;;;;;6.75;3.30;;;;;;;18.21;81.70;101512.59;5084470;28;20032;-79
2023/07/14 08:46:57;;;;;;;5.65;3.30;;;;;;;18.25;81.57;101518.56;5080509;28;20319;-79
2023/07/14 08:49:28;;;;;;;4.97;2.75;;;;;;;18.26;81.69;101518.44;5082257;28;20082;-79
2023/07/14 08:51:58;;;;;;;6.30;3.47;;;;;;;18.28;80.21;101527.19;5079413;28;20063;-79
2023/07/14 08:54:27;;;;;;;10.10;3.72;;;;;;;18.31;80.07;101523.47;5064512;28;20028;-79
2023/07/14 08:56:53;;;;;;;4.72;2.88;;;;;;;18.33;80.14;101524.22;5080986;28;20078;-79
2023/07/14 08:59:32;;;;;;;6.60;3.35;;;;;;;18.33;79.51;101525.06;5060041;28;20025;-79
2023/07/14 09:01:59;;;;;;;7.60;3.13;;;;;;;18.37;80.33;101515.13;5075333;28;20334;-79
2023/07/14 09:04:32;;;;;;;7.93;3.23;;;;;;;18.40;79.49;101504.34;5074328;28;20035;-79
2023/07/14 09:06:57;;;;;;;7.35;3.13;;;;;;;18.42;79.55;101511.22;5063654;28;20059;-79
2023/07/14 09:09:32;;;;;;;4.15;2.70;;;;;;;18.48;79.69;101517.09;5077209;28;20051;-79
2023/07/14 09:12:16;;;;;;;6.53;3.25;;;;;;;18.51;79.12;101514.25;5080598;28;20369;-79
2023/07/14 09:14:44;;;;;;;3.80;2.83;;;;;;;18.56;79.29;101512.19;5074971;28;20131;-79
2023/07/14 09:17:23;;;;;;;4.40;2.92;;;;;;;18.61;79.34;101502.13;5078524;28;20062;-79
2023/07/14 09:20:19;;;;;;;3.75;2.10;;;;;;;18.66;79.41;101499.16;5076329;28;20342;-79
2023/07/14 09:22:47;;;;;;;4.80;2.67;;;;;;;18.70;79.30;101498.00;5077525;28;20381;-79
2023/07/14 09:25:34;;;;;;;5.85;3.22;;;;;;;18.75;79.09;101510.03;5091334;28;20358;-79
2023/07/14 09:28:00;;;;;;;8.23;3.33;;;;;;;18.77;77.09;101507.28;5058347;28;20093;-79
2023/07/14 09:30:28;;;;;;;6.50;2.80;;;;;;;18.81;77.52;101508.84;5075344;28;20360;-80
2023/07/14 09:33:00;;;;;;;5.05;2.58;;;;;;;18.86;77.71;101503.22;5076806;28;20040;-80
2023/07/14 09:35:28;;;;;;;5.05;2.95;;;;;;;18.95;77.51;101505.25;5078628;28;20024;-79
2023/07/14 09:38:13;;;;;;;2.83;2.45;;;;;;;19.03;77.04;101504.75;5073358;28;20062;-79
2023/07/14 09:40:41;;;;;;;4.85;2.45;;;;;;;19.10;77.29;101500.75;5074043;28;20029;-80
2023/07/14 09:43:07;;;;;;;6.40;2.63;;;;;;;19.14;77.04;101499.63;5074250;28;20059;-80
2023/07/14 09:45:35;;;;;;;2.60;2.10;;;;;;;19.13;74.14;101493.44;5054465;28;20239;-80
2023/07/14 09:48:06;;;;;;;5.35;2.22;;;;;;;19.13;75.25;101497.91;5078387;28;20024;-80
2023/07/14 09:50:37;;;;;;;3.58;2.25;;;;;;;19.14;75.42;101492.50;5062263;28;20039;-80
2023/07/14 09:53:05;;;;;;;2.90;2.15;;;;;;;19.15;74.00;101482.72;5076190;28;20300;-79
2023/07/14 09:55:52;;;;;;;4.47;2.05;;;;;;;19.16;73.56;101484.44;5077998;28;20032;-80
2023/07/14 09:58:21;;;;;;;4.60;2.10;;;;;;;19.16;74.13;101487.94;5080388;28;20040;-81
2023/07/14 10:00:49;;;;;;;3.75;2.15;;;;;;;19.16;74.28;101479.13;5087969;28;20017;-80
2023/07/14 10:03:17;;;;;;;4.90;1.88;;;;;;;19.16;72.60;101482.63;5077480;28;20062;-80
2023/07/14 10:05:43;;;;;;;;;;;;;;;19.15;72.95;101480.06;5070669;28;20036;-80
2023/07/14 10:08:29;;;;;;;2.00;1.80;;;;;;;19.15;72.62;101474.75;5067047;28;19920;-80
2023/07/14 10:10:59;;;;;;;2.72;2.10;;;;;;;19.13;72.72;101479.31;5072189;28;20039;-80
2023/07/14 10:13:27;;;;;;;2.42;2.00;;;;;;;19.13;72.78;101474.84;5068244;28;20047;-80
2023/07/14 10:16:15;;;;;;;2.45;1.77;;;;;;;19.15;73.54;101474.75;5075394;28;20028;-80
2023/07/14 10:18:58;;;;;;;2.33;1.77;;;;;;;19.19;72.92;101481.53;5069060;28;20178;-80
2023/07/14 10:21:28;;;;;;;2.30;1.75;;;;;;;19.21;73.44;101477.00;5074213;28;20094;-81
2023/07/14 10:23:58;;;;;;;4.82;2.55;;;;;;;19.21;72.69;101479.66;5076173;28;20258;-81
2023/07/14 10:26:28;;;;;;;3.75;2.30;;;;;;;19.21;71.73;101474.34;5075190;28;20093;-79
2023/07/14 10:28:54;;;;;;;6.05;2.35;;;;;;;19.17;70.78;101470.19;5074588;28;20033;-80
2023/07/14 10:31:47;;;;;;;4.82;2.13;;;;;;;19.16;71.49;101458.72;5074660;28;20086;-81
2023/07/14 10:34:42;;;;;;;3.08;2.33;;;;;;;19.17;71.13;101430.34;5066678;28;20097;-80
2023/07/14 10:37:24;;;;;;;3.13;2.08;;;;;;;19.20;71.50;101410.72;5072845;28;20044;-80
2023/07/14 10:39:54;;;;;;;2.97;1.95;;;;;;;19.20;70.88;101421.34;5072279;28;20147;-80
2023/07/14 10:42:25;;;;;;;3.72;1.85;;;;;;;19.21;71.51;101431.00;5073999;28;20048;-80
2023/07/14 10:44:50;;;;;;;3.53;1.80;;;;;;;19.22;71.80;101428.25;5074979;28;20062;-80
2023/07/14 10:47:20;;;;;;;2.55;1.83;;;;;;;19.24;72.05;101423.69;5073982;28;20040;-80
2023/07/14 10:50:19;;;;;;;3.72;1.67;;;;;;;19.27;71.92;101415.50;5066479;28;20032;-80
2023/07/14 10:52:51;;;;;;;3.80;1.80;;;;;;;19.28;71.73;101413.69;5072027;28;20387;-80
2023/07/14 10:55:25;;;;;;;1.83;1.48;;;;;;;19.32;72.15;101420.53;5073215;28;20044;-80
2023/07/14 10:58:03;;;;;;;3.63;1.77;;;;;;;19.34;71.65;101426.56;5077358;28;20216;-80
2023/07/14 11:00:36;;;;;;;2.55;1.80;;;;;;;19.36;71.75;101424.66;5078852;28;20029;-80
2023/07/14 11:03:43;;;;;;;2.70;1.77;;;;;;;19.38;71.22;101414.78;5073743;28;20138;-80
2023/07/14 11:06:18;;;;;;;2.58;1.70;;;;;;;19.41;71.50;101403.09;5077347;28;20029;-80
2023/07/14 11:08:48;;;;;;;1.92;1.80;;;;;;;19.43;71.31;101398.50;5082749;28;20389;-80
2023/07/14 11:11:56;;;;;;;2.03;1.77;;;;;;;19.46;71.17;101404.47;5080388;28;20265;-80
2023/07/14 11:14:27;;;;;;;3.65;1.92;;;;;;;19.48;70.65;101397.25;5096826;28;20451;-80
2023/07/14 11:16:55;;;;;;;2.50;1.92;;;;;;;19.51;70.58;101398.84;5096987;28;20138;-80
2023/07/14 11:19:56;;;;;;;3.65;1.88;;;;;;;19.55;69.64;101400.31;5097310;28;20231;-80
2023/07/14 11:22:37;;;;;;;3.20;1.80;;;;;;;19.59;70.19;101390.34;5079200;28;20047;-80
2023/07/14 11:25:17;;;;;;;1.85;1.60;;;;;;;19.63;70.67;101389.16;5097561;28;20086;-80
2023/07/14 11:27:59;;;;;;;2.58;1.65;;;;;;;19.67;70.09;101390.66;5080177;28;20043;-80
2023/07/14 11:30:41;;;;;;;2.53;1.60;;;;;;;19.74;70.12;101386.66;5098665;28;20024;-80
2023/07/14 11:33:22;;;;;;;2.25;1.80;;;;;;;19.79;70.36;101387.16;5080256;28;20360;-80
2023/07/14 11:36:08;;;;;;;1.75;1.63;;;;;;;19.88;70.23;101377.69;5097160;28;20341;-80